METAR Data
IDs: Format: Raw Decoded Include TAF

Data at: 0429 UTC 27 Jan 2021

METAR for:KM54 (Lebanon Muni, TN, US)
Text:KM54 270415Z AUTO 36007KT 10SM BKN028 BKN033 BKN120 06/03 A3004 RMK A01
Temperature: 6.0°C ( 43°F)
Dewpoint: 3.0°C ( 37°F) [RH = 81%]
Pressure (altimeter):30.04 inches Hg (1017.4 mb)
Winds:from the N (360 degrees) at 8 MPH (7 knots; 3.6 m/s)
Visibility:10 or more sm (16+ km)
Ceiling:2800 feet AGL
Clouds: broken clouds at 2800 feet AGL, broken clouds at 3300 feet AGL, broken clouds at 12000 feet AGL
QC Flag:automated observation with no human augmentation